sensor_id;sensor_type;location;lat;lon;timestamp;P1;durP1;ratioP1;P2;durP2;ratioP2
7919;SDS011;18778;47.610;9.776;2023-10-31T00:01:34;0.80;;;0.80;;
7919;SDS011;18778;47.610;9.776;2023-10-31T00:04:00;0.60;;;0.60;;
7919;SDS011;18778;47.610;9.776;2023-10-31T00:06:26;0.77;;;0.77;;
7919;SDS011;18778;47.610;9.776;2023-10-31T00:08:51;0.83;;;0.83;;
7919;SDS011;18778;47.610;9.776;2023-10-31T00:11:17;0.90;;;0.90;;
7919;SDS011;18778;47.610;9.776;2023-10-31T00:13:43;0.60;;;0.60;;
7919;SDS011;18778;47.610;9.776;2023-10-31T00:16:08;1.23;;;1.13;;
7919;SDS011;18778;47.610;9.776;2023-10-31T00:18:34;1.00;;;1.00;;
7919;SDS011;18778;47.610;9.776;2023-10-31T00:20:59;0.97;;;0.97;;
7919;SDS011;18778;47.610;9.776;2023-10-31T00:23:25;1.00;;;1.00;;
7919;SDS011;18778;47.610;9.776;2023-10-31T00:25:51;1.33;;;0.80;;
7919;SDS011;18778;47.610;9.776;2023-10-31T00:28:16;1.03;;;0.93;;
7919;SDS011;18778;47.610;9.776;2023-10-31T00:30:42;0.83;;;0.83;;
7919;SDS011;18778;47.610;9.776;2023-10-31T00:33:07;0.80;;;0.73;;
7919;SDS011;18778;47.610;9.776;2023-10-31T00:35:33;3.10;;;0.80;;
7919;SDS011;18778;47.610;9.776;2023-10-31T00:37:59;1.47;;;0.80;;
7919;SDS011;18778;47.610;9.776;2023-10-31T00:40:24;0.80;;;0.80;;
7919;SDS011;18778;47.610;9.776;2023-10-31T00:42:50;1.13;;;0.97;;
7919;SDS011;18778;47.610;9.776;2023-10-31T00:45:15;0.90;;;0.90;;
7919;SDS011;18778;47.610;9.776;2023-10-31T00:47:41;1.20;;;1.10;;
7919;SDS011;18778;47.610;9.776;2023-10-31T00:50:06;0.90;;;0.90;;
7919;SDS011;18778;47.610;9.776;2023-10-31T00:52:33;1.23;;;1.00;;
7919;SDS011;18778;47.610;9.776;2023-10-31T00:54:59;0.80;;;0.80;;
7919;SDS011;18778;47.610;9.776;2023-10-31T00:57:25;1.10;;;0.80;;
7919;SDS011;18778;47.610;9.776;2023-10-31T00:59:50;0.93;;;0.80;;
7919;SDS011;18778;47.610;9.776;2023-10-31T01:02:16;1.20;;;0.90;;
7919;SDS011;18778;47.610;9.776;2023-10-31T01:04:41;1.43;;;1.23;;
7919;SDS011;18778;47.610;9.776;2023-10-31T01:07:07;1.10;;;1.10;;
7919;SDS011;18778;47.610;9.776;2023-10-31T01:09:37;0.87;;;0.87;;
7919;SDS011;18778;47.610;9.776;2023-10-31T01:12:03;0.90;;;0.90;;
7919;SDS011;18778;47.610;9.776;2023-10-31T01:14:29;0.80;;;0.80;;
7919;SDS011;18778;47.610;9.776;2023-10-31T01:16:54;1.50;;;1.10;;
7919;SDS011;18778;47.610;9.776;2023-10-31T01:19:20;1.33;;;1.23;;
7919;SDS011;18778;47.610;9.776;2023-10-31T01:21:46;1.33;;;0.80;;
7919;SDS011;18778;47.610;9.776;2023-10-31T01:24:11;0.93;;;0.93;;
7919;SDS011;18778;47.610;9.776;2023-10-31T01:26:38;1.33;;;1.23;;
7919;SDS011;18778;47.610;9.776;2023-10-31T01:29:04;1.67;;;0.97;;
7919;SDS011;18778;47.610;9.776;2023-10-31T01:31:30;1.10;;;1.10;;
7919;SDS011;18778;47.610;9.776;2023-10-31T01:33:57;2.13;;;1.10;;
7919;SDS011;18778;47.610;9.776;2023-10-31T01:36:26;1.33;;;1.10;;
7919;SDS011;18778;47.610;9.776;2023-10-31T01:38:52;1.30;;;1.20;;
7919;SDS011;18778;47.610;9.776;2023-10-31T01:41:17;1.27;;;1.20;;
7919;SDS011;18778;47.610;9.776;2023-10-31T01:43:43;1.73;;;1.63;;
7919;SDS011;18778;47.610;9.776;2023-10-31T01:46:09;1.50;;;1.37;;
7919;SDS011;18778;47.610;9.776;2023-10-31T01:48:34;1.60;;;1.53;;
7919;SDS011;18778;47.610;9.776;2023-10-31T01:51:01;1.37;;;1.27;;
7919;SDS011;18778;47.610;9.776;2023-10-31T01:53:29;1.50;;;1.40;;
7919;SDS011;18778;47.610;9.776;2023-10-31T01:55:58;2.40;;;1.47;;
7919;SDS011;18778;47.610;9.776;2023-10-31T01:58:28;2.03;;;1.93;;
7919;SDS011;18778;47.610;9.776;2023-10-31T02:00:59;1.70;;;1.60;;
7919;SDS011;18778;47.610;9.776;2023-10-31T02:03:26;2.00;;;1.87;;
7919;SDS011;18778;47.610;9.776;2023-10-31T02:05:55;2.03;;;1.93;;
7919;SDS011;18778;47.610;9.776;2023-10-31T02:08:21;1.90;;;1.80;;
7919;SDS011;18778;47.610;9.776;2023-10-31T02:10:47;2.93;;;2.67;;
7919;SDS011;18778;47.610;9.776;2023-10-31T02:13:13;2.33;;;2.13;;
7919;SDS011;18778;47.610;9.776;2023-10-31T02:15:40;2.10;;;2.00;;
7919;SDS011;18778;47.610;9.776;2023-10-31T02:18:06;1.63;;;1.63;;
7919;SDS011;18778;47.610;9.776;2023-10-31T02:20:32;1.93;;;1.77;;
7919;SDS011;18778;47.610;9.776;2023-10-31T02:22:58;1.63;;;1.60;;
7919;SDS011;18778;47.610;9.776;2023-10-31T02:25:24;1.50;;;1.50;;
7919;SDS011;18778;47.610;9.776;2023-10-31T02:27:49;1.90;;;1.80;;
7919;SDS011;18778;47.610;9.776;2023-10-31T02:30:15;1.60;;;1.50;;
7919;SDS011;18778;47.610;9.776;2023-10-31T02:32:41;1.40;;;1.30;;
7919;SDS011;18778;47.610;9.776;2023-10-31T02:35:07;1.67;;;1.57;;
7919;SDS011;18778;47.610;9.776;2023-10-31T02:37:33;1.40;;;1.40;;
7919;SDS011;18778;47.610;9.776;2023-10-31T02:39:58;1.43;;;1.33;;
7919;SDS011;18778;47.610;9.776;2023-10-31T02:42:25;1.10;;;1.00;;
7919;SDS011;18778;47.610;9.776;2023-10-31T02:44:51;0.90;;;0.90;;
7919;SDS011;18778;47.610;9.776;2023-10-31T02:47:17;1.10;;;1.10;;
7919;SDS011;18778;47.610;9.776;2023-10-31T02:49:42;1.80;;;1.17;;
7919;SDS011;18778;47.610;9.776;2023-10-31T02:52:08;1.00;;;1.00;;
7919;SDS011;18778;47.610;9.776;2023-10-31T02:54:34;0.90;;;0.90;;
7919;SDS011;18778;47.610;9.776;2023-10-31T02:56:59;1.10;;;1.10;;
7919;SDS011;18778;47.610;9.776;2023-10-31T02:59:25;1.00;;;0.80;;
7919;SDS011;18778;47.610;9.776;2023-10-31T03:01:52;0.80;;;0.80;;
7919;SDS011;18778;47.610;9.776;2023-10-31T03:04:18;0.80;;;0.80;;
7919;SDS011;18778;47.610;9.776;2023-10-31T03:06:43;0.90;;;0.90;;
7919;SDS011;18778;47.610;9.776;2023-10-31T03:09:09;1.00;;;1.00;;
7919;SDS011;18778;47.610;9.776;2023-10-31T03:11:35;0.90;;;0.90;;
7919;SDS011;18778;47.610;9.776;2023-10-31T03:14:01;0.90;;;0.90;;
7919;SDS011;18778;47.610;9.776;2023-10-31T03:16:26;0.80;;;0.80;;
7919;SDS011;18778;47.610;9.776;2023-10-31T03:18:52;0.90;;;0.90;;
7919;SDS011;18778;47.610;9.776;2023-10-31T03:21:18;1.27;;;1.00;;
7919;SDS011;18778;47.610;9.776;2023-10-31T03:23:47;1.00;;;1.00;;
7919;SDS011;18778;47.610;9.776;2023-10-31T03:26:14;1.40;;;0.93;;
7919;SDS011;18778;47.610;9.776;2023-10-31T03:28:43;0.90;;;0.90;;
7919;SDS011;18778;47.610;9.776;2023-10-31T03:31:09;1.20;;;1.10;;
7919;SDS011;18778;47.610;9.776;2023-10-31T03:33:35;2.53;;;1.10;;
7919;SDS011;18778;47.610;9.776;2023-10-31T03:36:01;1.10;;;1.10;;
7919;SDS011;18778;47.610;9.776;2023-10-31T03:38:27;1.30;;;1.20;;
7919;SDS011;18778;47.610;9.776;2023-10-31T03:40:53;0.80;;;0.80;;
7919;SDS011;18778;47.610;9.776;2023-10-31T03:43:19;0.80;;;0.80;;
7919;SDS011;18778;47.610;9.776;2023-10-31T03:45:45;0.87;;;0.87;;
7919;SDS011;18778;47.610;9.776;2023-10-31T03:48:12;1.60;;;1.10;;
7919;SDS011;18778;47.610;9.776;2023-10-31T03:50:38;0.90;;;0.90;;
7919;SDS011;18778;47.610;9.776;2023-10-31T03:53:04;1.10;;;1.10;;
7919;SDS011;18778;47.610;9.776;2023-10-31T03:55:29;0.93;;;0.93;;
7919;SDS011;18778;47.610;9.776;2023-10-31T03:57:57;6.00;;;1.00;;
7919;SDS011;18778;47.610;9.776;2023-10-31T04:00:23;0.90;;;0.90;;
7919;SDS011;18778;47.610;9.776;2023-10-31T04:02:49;1.50;;;1.20;;
7919;SDS011;18778;47.610;9.776;2023-10-31T04:05:14;1.00;;;1.00;;
7919;SDS011;18778;47.610;9.776;2023-10-31T04:07:40;0.90;;;0.90;;
7919;SDS011;18778;47.610;9.776;2023-10-31T04:10:06;1.03;;;0.90;;
7919;SDS011;18778;47.610;9.776;2023-10-31T04:12:32;1.20;;;1.10;;
7919;SDS011;18778;47.610;9.776;2023-10-31T04:14:58;1.47;;;1.17;;
7919;SDS011;18778;47.610;9.776;2023-10-31T04:17:24;1.00;;;1.00;;
7919;SDS011;18778;47.610;9.776;2023-10-31T04:19:50;1.00;;;1.00;;
7919;SDS011;18778;47.610;9.776;2023-10-31T04:22:15;1.30;;;1.30;;
7919;SDS011;18778;47.610;9.776;2023-10-31T04:24:41;1.40;;;1.27;;
7919;SDS011;18778;47.610;9.776;2023-10-31T04:27:06;1.30;;;1.30;;
7919;SDS011;18778;47.610;9.776;2023-10-31T04:29:32;2.07;;;1.20;;
7919;SDS011;18778;47.610;9.776;2023-10-31T04:31:58;1.27;;;1.03;;
7919;SDS011;18778;47.610;9.776;2023-10-31T04:34:23;0.97;;;0.97;;
7919;SDS011;18778;47.610;9.776;2023-10-31T04:36:49;0.90;;;0.90;;
7919;SDS011;18778;47.610;9.776;2023-10-31T04:39:15;1.10;;;1.00;;
7919;SDS011;18778;47.610;9.776;2023-10-31T04:41:40;1.10;;;1.10;;
7919;SDS011;18778;47.610;9.776;2023-10-31T04:44:06;1.20;;;1.10;;
7919;SDS011;18778;47.610;9.776;2023-10-31T04:46:32;1.13;;;1.07;;
7919;SDS011;18778;47.610;9.776;2023-10-31T04:48:57;1.20;;;1.10;;
7919;SDS011;18778;47.610;9.776;2023-10-31T04:51:23;1.03;;;1.03;;
7919;SDS011;18778;47.610;9.776;2023-10-31T04:53:48;1.27;;;1.17;;
7919;SDS011;18778;47.610;9.776;2023-10-31T04:56:15;2.30;;;1.30;;
7919;SDS011;18778;47.610;9.776;2023-10-31T04:58:41;1.13;;;1.10;;
7919;SDS011;18778;47.610;9.776;2023-10-31T05:01:08;1.03;;;1.03;;
7919;SDS011;18778;47.610;9.776;2023-10-31T05:03:37;1.10;;;1.10;;
7919;SDS011;18778;47.610;9.776;2023-10-31T05:06:03;2.00;;;1.40;;
7919;SDS011;18778;47.610;9.776;2023-10-31T05:08:29;1.20;;;1.20;;
7919;SDS011;18778;47.610;9.776;2023-10-31T05:10:55;1.50;;;1.30;;
7919;SDS011;18778;47.610;9.776;2023-10-31T05:13:22;1.50;;;1.03;;
7919;SDS011;18778;47.610;9.776;2023-10-31T05:15:47;1.20;;;1.20;;
7919;SDS011;18778;47.610;9.776;2023-10-31T05:18:13;1.80;;;1.20;;
7919;SDS011;18778;47.610;9.776;2023-10-31T05:20:39;1.40;;;1.17;;
7919;SDS011;18778;47.610;9.776;2023-10-31T05:23:04;1.10;;;1.10;;
7919;SDS011;18778;47.610;9.776;2023-10-31T05:25:30;1.17;;;1.00;;
7919;SDS011;18778;47.610;9.776;2023-10-31T05:27:56;1.13;;;1.07;;
7919;SDS011;18778;47.610;9.776;2023-10-31T05:30:21;0.97;;;0.97;;
7919;SDS011;18778;47.610;9.776;2023-10-31T05:32:47;1.53;;;1.30;;
7919;SDS011;18778;47.610;9.776;2023-10-31T05:35:14;2.53;;;1.20;;
7919;SDS011;18778;47.610;9.776;2023-10-31T05:37:40;1.03;;;1.00;;
7919;SDS011;18778;47.610;9.776;2023-10-31T05:40:05;1.30;;;1.30;;
7919;SDS011;18778;47.610;9.776;2023-10-31T05:42:31;1.43;;;1.40;;
7919;SDS011;18778;47.610;9.776;2023-10-31T05:44:57;1.40;;;1.30;;
7919;SDS011;18778;47.610;9.776;2023-10-31T05:47:22;1.60;;;1.00;;
7919;SDS011;18778;47.610;9.776;2023-10-31T05:49:48;1.40;;;1.30;;
7919;SDS011;18778;47.610;9.776;2023-10-31T05:52:14;1.97;;;1.40;;
7919;SDS011;18778;47.610;9.776;2023-10-31T05:54:40;1.40;;;1.30;;
7919;SDS011;18778;47.610;9.776;2023-10-31T05:57:05;1.10;;;1.10;;
7919;SDS011;18778;47.610;9.776;2023-10-31T05:59:31;1.30;;;1.20;;
7919;SDS011;18778;47.610;9.776;2023-10-31T06:01:57;1.43;;;1.40;;
7919;SDS011;18778;47.610;9.776;2023-10-31T06:04:23;1.40;;;1.30;;
7919;SDS011;18778;47.610;9.776;2023-10-31T06:06:50;1.57;;;1.57;;
7919;SDS011;18778;47.610;9.776;2023-10-31T06:09:16;1.50;;;1.40;;
7919;SDS011;18778;47.610;9.776;2023-10-31T06:11:41;1.60;;;1.50;;
7919;SDS011;18778;47.610;9.776;2023-10-31T06:14:08;2.80;;;1.40;;
7919;SDS011;18778;47.610;9.776;2023-10-31T06:16:39;1.60;;;1.60;;
7919;SDS011;18778;47.610;9.776;2023-10-31T06:19:08;1.50;;;1.50;;
7919;SDS011;18778;47.610;9.776;2023-10-31T06:21:34;1.30;;;1.30;;
7919;SDS011;18778;47.610;9.776;2023-10-31T06:24:01;2.50;;;1.60;;
7919;SDS011;18778;47.610;9.776;2023-10-31T06:26:27;1.30;;;1.30;;
7919;SDS011;18778;47.610;9.776;2023-10-31T06:28:53;1.80;;;1.70;;
7919;SDS011;18778;47.610;9.776;2023-10-31T06:31:18;1.70;;;1.60;;
7919;SDS011;18778;47.610;9.776;2023-10-31T06:33:44;2.67;;;1.77;;
7919;SDS011;18778;47.610;9.776;2023-10-31T06:36:09;1.53;;;1.43;;
7919;SDS011;18778;47.610;9.776;2023-10-31T06:38:35;5.27;;;1.77;;
7919;SDS011;18778;47.610;9.776;2023-10-31T06:41:00;2.03;;;1.40;;
7919;SDS011;18778;47.610;9.776;2023-10-31T06:43:26;1.40;;;1.30;;
7919;SDS011;18778;47.610;9.776;2023-10-31T06:45:53;1.43;;;1.33;;
7919;SDS011;18778;47.610;9.776;2023-10-31T06:48:18;1.50;;;1.40;;
7919;SDS011;18778;47.610;9.776;2023-10-31T06:50:44;1.33;;;1.20;;
7919;SDS011;18778;47.610;9.776;2023-10-31T06:53:09;1.00;;;1.00;;
7919;SDS011;18778;47.610;9.776;2023-10-31T06:55:35;1.30;;;1.23;;
7919;SDS011;18778;47.610;9.776;2023-10-31T06:58:01;1.20;;;1.20;;
7919;SDS011;18778;47.610;9.776;2023-10-31T07:00:27;1.57;;;1.47;;
7919;SDS011;18778;47.610;9.776;2023-10-31T07:02:53;1.47;;;1.37;;
7919;SDS011;18778;47.610;9.776;2023-10-31T07:05:18;1.50;;;1.40;;
7919;SDS011;18778;47.610;9.776;2023-10-31T07:07:45;1.90;;;1.50;;
7919;SDS011;18778;47.610;9.776;2023-10-31T07:10:11;1.57;;;1.23;;
7919;SDS011;18778;47.610;9.776;2023-10-31T07:12:37;1.13;;;1.13;;
7919;SDS011;18778;47.610;9.776;2023-10-31T07:15:03;1.03;;;1.03;;
7919;SDS011;18778;47.610;9.776;2023-10-31T07:17:28;1.23;;;1.20;;
7919;SDS011;18778;47.610;9.776;2023-10-31T07:19:55;1.53;;;1.43;;
7919;SDS011;18778;47.610;9.776;2023-10-31T07:22:20;1.50;;;1.40;;
7919;SDS011;18778;47.610;9.776;2023-10-31T07:24:47;4.27;;;1.67;;
7919;SDS011;18778;47.610;9.776;2023-10-31T07:27:13;1.23;;;1.20;;
7919;SDS011;18778;47.610;9.776;2023-10-31T07:29:39;1.43;;;1.33;;
7919;SDS011;18778;47.610;9.776;2023-10-31T07:32:05;1.43;;;1.33;;
7919;SDS011;18778;47.610;9.776;2023-10-31T07:34:31;1.43;;;1.33;;
7919;SDS011;18778;47.610;9.776;2023-10-31T07:36:57;2.53;;;1.50;;
7919;SDS011;18778;47.610;9.776;2023-10-31T07:39:23;1.60;;;1.50;;
7919;SDS011;18778;47.610;9.776;2023-10-31T07:41:48;3.97;;;1.97;;
7919;SDS011;18778;47.610;9.776;2023-10-31T07:44:14;2.07;;;1.70;;
7919;SDS011;18778;47.610;9.776;2023-10-31T07:46:39;1.10;;;1.10;;
7919;SDS011;18778;47.610;9.776;2023-10-31T07:49:05;1.37;;;1.27;;
7919;SDS011;18778;47.610;9.776;2023-10-31T07:51:31;1.30;;;1.20;;
7919;SDS011;18778;47.610;9.776;2023-10-31T07:53:56;1.10;;;1.10;;
7919;SDS011;18778;47.610;9.776;2023-10-31T07:56:23;1.83;;;1.57;;
7919;SDS011;18778;47.610;9.776;2023-10-31T07:58:50;2.83;;;1.27;;
7919;SDS011;18778;47.610;9.776;2023-10-31T08:01:19;1.33;;;1.20;;
7919;SDS011;18778;47.610;9.776;2023-10-31T08:03:45;6.30;;;1.27;;
7919;SDS011;18778;47.610;9.776;2023-10-31T08:06:12;1.50;;;1.40;;
7919;SDS011;18778;47.610;9.776;2023-10-31T08:08:38;1.30;;;1.30;;
7919;SDS011;18778;47.610;9.776;2023-10-31T08:11:06;2.50;;;1.50;;
7919;SDS011;18778;47.610;9.776;2023-10-31T08:13:32;1.77;;;1.27;;
7919;SDS011;18778;47.610;9.776;2023-10-31T08:15:58;2.43;;;1.80;;
7919;SDS011;18778;47.610;9.776;2023-10-31T08:18:23;1.53;;;1.43;;
7919;SDS011;18778;47.610;9.776;2023-10-31T08:20:49;1.43;;;1.30;;
7919;SDS011;18778;47.610;9.776;2023-10-31T08:23:16;2.23;;;1.50;;
7919;SDS011;18778;47.610;9.776;2023-10-31T08:25:42;1.40;;;1.30;;
7919;SDS011;18778;47.610;9.776;2023-10-31T08:28:08;3.17;;;1.20;;
7919;SDS011;18778;47.610;9.776;2023-10-31T08:30:34;4.00;;;1.40;;
7919;SDS011;18778;47.610;9.776;2023-10-31T08:33:00;1.50;;;1.30;;
7919;SDS011;18778;47.610;9.776;2023-10-31T08:35:26;2.60;;;1.33;;
7919;SDS011;18778;47.610;9.776;2023-10-31T08:37:51;1.83;;;1.40;;
7919;SDS011;18778;47.610;9.776;2023-10-31T08:40:17;1.57;;;1.47;;
7919;SDS011;18778;47.610;9.776;2023-10-31T08:42:43;1.90;;;1.57;;
7919;SDS011;18778;47.610;9.776;2023-10-31T08:45:09;2.20;;;1.70;;
7919;SDS011;18778;47.610;9.776;2023-10-31T08:47:34;2.33;;;1.40;;
7919;SDS011;18778;47.610;9.776;2023-10-31T08:50:00;1.10;;;1.00;;
7919;SDS011;18778;47.610;9.776;2023-10-31T08:52:25;5.23;;;1.43;;
7919;SDS011;18778;47.610;9.776;2023-10-31T08:54:51;1.90;;;1.17;;
7919;SDS011;18778;47.610;9.776;2023-10-31T08:57:16;3.43;;;1.33;;
7919;SDS011;18778;47.610;9.776;2023-10-31T08:59:42;1.63;;;1.40;;
7919;SDS011;18778;47.610;9.776;2023-10-31T09:02:08;4.87;;;1.20;;
7919;SDS011;18778;47.610;9.776;2023-10-31T09:04:34;4.27;;;1.20;;
7919;SDS011;18778;47.610;9.776;2023-10-31T09:07:00;1.83;;;1.17;;
7919;SDS011;18778;47.610;9.776;2023-10-31T09:09:26;3.43;;;1.30;;
7919;SDS011;18778;47.610;9.776;2023-10-31T09:11:51;5.53;;;1.33;;
7919;SDS011;18778;47.610;9.776;2023-10-31T09:14:17;3.47;;;1.30;;
7919;SDS011;18778;47.610;9.776;2023-10-31T09:16:42;1.43;;;1.23;;
7919;SDS011;18778;47.610;9.776;2023-10-31T09:19:08;4.60;;;1.73;;
7919;SDS011;18778;47.610;9.776;2023-10-31T09:21:34;3.77;;;1.10;;
7919;SDS011;18778;47.610;9.776;2023-10-31T09:23:59;2.10;;;1.20;;
7919;SDS011;18778;47.610;9.776;2023-10-31T09:26:25;2.37;;;1.47;;
7919;SDS011;18778;47.610;9.776;2023-10-31T09:28:51;1.70;;;1.30;;
7919;SDS011;18778;47.610;9.776;2023-10-31T09:31:17;1.30;;;1.20;;
7919;SDS011;18778;47.610;9.776;2023-10-31T09:33:43;5.00;;;1.20;;
7919;SDS011;18778;47.610;9.776;2023-10-31T09:36:09;4.30;;;1.20;;
7919;SDS011;18778;47.610;9.776;2023-10-31T09:38:35;1.13;;;1.00;;
7919;SDS011;18778;47.610;9.776;2023-10-31T09:41:00;2.00;;;1.23;;
7919;SDS011;18778;47.610;9.776;2023-10-31T09:43:26;6.30;;;1.80;;
7919;SDS011;18778;47.610;9.776;2023-10-31T09:45:52;4.63;;;1.23;;
7919;SDS011;18778;47.610;9.776;2023-10-31T09:48:19;4.60;;;1.43;;
7919;SDS011;18778;47.610;9.776;2023-10-31T09:50:45;1.80;;;1.03;;
7919;SDS011;18778;47.610;9.776;2023-10-31T09:53:12;3.00;;;1.50;;
7919;SDS011;18778;47.610;9.776;2023-10-31T09:55:39;2.47;;;1.40;;
7919;SDS011;18778;47.610;9.776;2023-10-31T09:58:06;2.20;;;1.10;;
7919;SDS011;18778;47.610;9.776;2023-10-31T10:00:31;3.53;;;1.60;;
7919;SDS011;18778;47.610;9.776;2023-10-31T10:02:57;3.27;;;1.63;;
7919;SDS011;18778;47.610;9.776;2023-10-31T10:05:24;1.90;;;1.10;;
7919;SDS011;18778;47.610;9.776;2023-10-31T10:07:54;5.03;;;1.80;;
7919;SDS011;18778;47.610;9.776;2023-10-31T10:10:20;2.73;;;1.23;;
7919;SDS011;18778;47.610;9.776;2023-10-31T10:12:46;4.53;;;1.60;;
7919;SDS011;18778;47.610;9.776;2023-10-31T10:15:11;11.63;;;5.37;;
7919;SDS011;18778;47.610;9.776;2023-10-31T10:17:37;5.03;;;2.47;;
7919;SDS011;18778;47.610;9.776;2023-10-31T10:20:05;4.23;;;1.53;;
7919;SDS011;18778;47.610;9.776;2023-10-31T10:22:35;4.13;;;1.93;;
7919;SDS011;18778;47.610;9.776;2023-10-31T10:25:08;8.47;;;3.90;;
7919;SDS011;18778;47.610;9.776;2023-10-31T10:27:37;16.00;;;8.30;;
7919;SDS011;18778;47.610;9.776;2023-10-31T10:30:03;2.80;;;1.90;;
7919;SDS011;18778;47.610;9.776;2023-10-31T10:32:30;3.47;;;3.17;;
7919;SDS011;18778;47.610;9.776;2023-10-31T10:34:55;3.67;;;2.73;;
7919;SDS011;18778;47.610;9.776;2023-10-31T10:37:22;2.97;;;2.10;;
7919;SDS011;18778;47.610;9.776;2023-10-31T10:39:48;2.50;;;2.10;;
7919;SDS011;18778;47.610;9.776;2023-10-31T10:42:21;3.27;;;2.10;;
7919;SDS011;18778;47.610;9.776;2023-10-31T10:45:13;6.80;;;2.70;;
7919;SDS011;18778;47.610;9.776;2023-10-31T10:47:41;4.80;;;2.27;;
7919;SDS011;18778;47.610;9.776;2023-10-31T10:50:11;4.30;;;2.27;;
7919;SDS011;18778;47.610;9.776;2023-10-31T10:52:38;2.57;;;1.60;;
7919;SDS011;18778;47.610;9.776;2023-10-31T10:55:13;1.70;;;1.60;;
7919;SDS011;18778;47.610;9.776;2023-10-31T10:57:54;2.83;;;2.20;;
7919;SDS011;18778;47.610;9.776;2023-10-31T11:00:24;2.07;;;1.67;;
7919;SDS011;18778;47.610;9.776;2023-10-31T11:02:52;2.50;;;1.60;;
7919;SDS011;18778;47.610;9.776;2023-10-31T11:05:18;2.10;;;1.70;;
7919;SDS011;18778;47.610;9.776;2023-10-31T11:07:45;2.03;;;1.67;;
7919;SDS011;18778;47.610;9.776;2023-10-31T11:10:12;2.60;;;1.73;;
7919;SDS011;18778;47.610;9.776;2023-10-31T11:12:39;1.83;;;1.63;;
7919;SDS011;18778;47.610;9.776;2023-10-31T11:15:06;1.80;;;1.70;;
7919;SDS011;18778;47.610;9.776;2023-10-31T11:17:37;3.10;;;2.00;;
7919;SDS011;18778;47.610;9.776;2023-10-31T11:20:05;4.13;;;2.00;;
7919;SDS011;18778;47.610;9.776;2023-10-31T11:22:41;5.13;;;2.10;;
7919;SDS011;18778;47.610;9.776;2023-10-31T11:25:20;3.17;;;1.90;;
7919;SDS011;18778;47.610;9.776;2023-10-31T11:27:49;1.77;;;1.67;;
7919;SDS011;18778;47.610;9.776;2023-10-31T11:30:22;1.60;;;1.50;;
7919;SDS011;18778;47.610;9.776;2023-10-31T11:32:55;2.63;;;1.40;;
7919;SDS011;18778;47.610;9.776;2023-10-31T11:35:22;1.60;;;1.50;;
7919;SDS011;18778;47.610;9.776;2023-10-31T11:38:01;5.37;;;3.00;;
7919;SDS011;18778;47.610;9.776;2023-10-31T11:40:28;3.97;;;2.37;;
7919;SDS011;18778;47.610;9.776;2023-10-31T11:42:56;7.63;;;3.30;;
7919;SDS011;18778;47.610;9.776;2023-10-31T11:45:27;1.87;;;1.60;;
7919;SDS011;18778;47.610;9.776;2023-10-31T11:48:07;2.17;;;1.70;;
7919;SDS011;18778;47.610;9.776;2023-10-31T11:50:33;3.87;;;2.00;;
7919;SDS011;18778;47.610;9.776;2023-10-31T11:53:03;2.87;;;1.80;;
7919;SDS011;18778;47.610;9.776;2023-10-31T11:55:31;2.47;;;1.53;;
7919;SDS011;18778;47.610;9.776;2023-10-31T11:58:15;2.40;;;1.70;;
7919;SDS011;18778;47.610;9.776;2023-10-31T12:00:46;3.50;;;1.40;;
7919;SDS011;18778;47.610;9.776;2023-10-31T12:03:19;3.10;;;1.53;;
7919;SDS011;18778;47.610;9.776;2023-10-31T12:05:56;1.77;;;1.30;;
7919;SDS011;18778;47.610;9.776;2023-10-31T12:08:25;1.63;;;1.40;;
7919;SDS011;18778;47.610;9.776;2023-10-31T12:13:58;2.23;;;1.50;;
7919;SDS011;18778;47.610;9.776;2023-10-31T12:16:26;1.93;;;1.83;;
7919;SDS011;18778;47.610;9.776;2023-10-31T12:18:56;1.53;;;1.43;;
7919;SDS011;18778;47.610;9.776;2023-10-31T12:24:13;1.50;;;1.40;;
7919;SDS011;18778;47.610;9.776;2023-10-31T12:26:40;2.67;;;1.50;;
7919;SDS011;18778;47.610;9.776;2023-10-31T12:31:43;2.90;;;1.97;;
7919;SDS011;18778;47.610;9.776;2023-10-31T12:34:13;4.97;;;1.93;;
7919;SDS011;18778;47.610;9.776;2023-10-31T12:36:40;5.37;;;2.37;;
7919;SDS011;18778;47.610;9.776;2023-10-31T12:39:07;4.90;;;3.00;;
7919;SDS011;18778;47.610;9.776;2023-10-31T12:41:35;5.70;;;3.43;;
7919;SDS011;18778;47.610;9.776;2023-10-31T12:44:01;4.07;;;3.00;;
7919;SDS011;18778;47.610;9.776;2023-10-31T12:46:29;3.87;;;3.07;;
7919;SDS011;18778;47.610;9.776;2023-10-31T12:48:59;6.43;;;3.87;;
7919;SDS011;18778;47.610;9.776;2023-10-31T12:51:25;6.13;;;4.30;;
7919;SDS011;18778;47.610;9.776;2023-10-31T12:53:51;2.50;;;2.30;;
7919;SDS011;18778;47.610;9.776;2023-10-31T12:59:06;3.77;;;2.10;;
7919;SDS011;18778;47.610;9.776;2023-10-31T13:01:36;6.53;;;2.40;;
7919;SDS011;18778;47.610;9.776;2023-10-31T13:04:10;3.03;;;2.20;;
7919;SDS011;18778;47.610;9.776;2023-10-31T13:06:36;3.60;;;2.20;;
7919;SDS011;18778;47.610;9.776;2023-10-31T13:09:03;2.60;;;2.00;;
7919;SDS011;18778;47.610;9.776;2023-10-31T13:11:31;8.57;;;4.57;;
7919;SDS011;18778;47.610;9.776;2023-10-31T13:13:57;3.00;;;2.70;;
7919;SDS011;18778;47.610;9.776;2023-10-31T13:16:26;4.57;;;2.93;;
7919;SDS011;18778;47.610;9.776;2023-10-31T13:18:53;3.83;;;2.17;;
7919;SDS011;18778;47.610;9.776;2023-10-31T13:21:19;2.70;;;2.40;;
7919;SDS011;18778;47.610;9.776;2023-10-31T13:23:45;2.67;;;2.47;;
7919;SDS011;18778;47.610;9.776;2023-10-31T13:26:12;2.47;;;2.27;;
7919;SDS011;18778;47.610;9.776;2023-10-31T13:28:38;2.20;;;2.00;;
7919;SDS011;18778;47.610;9.776;2023-10-31T13:31:05;2.00;;;1.90;;
7919;SDS011;18778;47.610;9.776;2023-10-31T13:33:31;2.83;;;2.20;;
7919;SDS011;18778;47.610;9.776;2023-10-31T13:35:57;3.60;;;2.10;;
7919;SDS011;18778;47.610;9.776;2023-10-31T13:38:23;3.67;;;2.07;;
7919;SDS011;18778;47.610;9.776;2023-10-31T13:40:49;2.87;;;2.10;;
7919;SDS011;18778;47.610;9.776;2023-10-31T13:43:14;2.00;;;1.90;;
7919;SDS011;18778;47.610;9.776;2023-10-31T13:45:40;2.23;;;2.03;;
7919;SDS011;18778;47.610;9.776;2023-10-31T13:48:05;2.70;;;2.50;;
7919;SDS011;18778;47.610;9.776;2023-10-31T13:50:31;3.63;;;2.33;;
7919;SDS011;18778;47.610;9.776;2023-10-31T13:52:56;2.80;;;2.30;;
7919;SDS011;18778;47.610;9.776;2023-10-31T13:55:22;2.73;;;2.53;;
7919;SDS011;18778;47.610;9.776;2023-10-31T13:57:48;3.20;;;2.90;;
7919;SDS011;18778;47.610;9.776;2023-10-31T14:00:14;3.30;;;2.57;;
7919;SDS011;18778;47.610;9.776;2023-10-31T14:02:40;2.97;;;2.60;;
7919;SDS011;18778;47.610;9.776;2023-10-31T14:05:06;2.73;;;2.50;;
7919;SDS011;18778;47.610;9.776;2023-10-31T14:07:32;3.17;;;2.97;;
7919;SDS011;18778;47.610;9.776;2023-10-31T14:09:57;3.10;;;2.90;;
7919;SDS011;18778;47.610;9.776;2023-10-31T14:12:24;4.77;;;3.77;;
7919;SDS011;18778;47.610;9.776;2023-10-31T14:14:50;5.07;;;3.10;;
7919;SDS011;18778;47.610;9.776;2023-10-31T14:17:16;3.60;;;3.40;;
7919;SDS011;18778;47.610;9.776;2023-10-31T14:19:43;3.63;;;3.33;;
7919;SDS011;18778;47.610;9.776;2023-10-31T14:22:09;3.57;;;3.27;;
7919;SDS011;18778;47.610;9.776;2023-10-31T14:24:36;3.20;;;3.00;;
7919;SDS011;18778;47.610;9.776;2023-10-31T14:27:02;4.40;;;3.60;;
7919;SDS011;18778;47.610;9.776;2023-10-31T14:29:28;3.60;;;3.30;;
7919;SDS011;18778;47.610;9.776;2023-10-31T14:31:53;3.30;;;3.00;;
7919;SDS011;18778;47.610;9.776;2023-10-31T14:34:19;4.30;;;3.57;;
7919;SDS011;18778;47.610;9.776;2023-10-31T14:36:46;3.87;;;3.57;;
7919;SDS011;18778;47.610;9.776;2023-10-31T14:39:11;3.47;;;2.83;;
7919;SDS011;18778;47.610;9.776;2023-10-31T14:41:37;4.97;;;4.00;;
7919;SDS011;18778;47.610;9.776;2023-10-31T14:44:04;4.40;;;4.00;;
7919;SDS011;18778;47.610;9.776;2023-10-31T14:46:30;3.97;;;3.10;;
7919;SDS011;18778;47.610;9.776;2023-10-31T14:48:55;2.80;;;2.60;;
7919;SDS011;18778;47.610;9.776;2023-10-31T14:51:21;5.73;;;4.07;;
7919;SDS011;18778;47.610;9.776;2023-10-31T14:53:46;2.83;;;2.63;;
7919;SDS011;18778;47.610;9.776;2023-10-31T14:56:12;4.37;;;3.23;;
7919;SDS011;18778;47.610;9.776;2023-10-31T14:58:38;6.53;;;3.50;;
7919;SDS011;18778;47.610;9.776;2023-10-31T15:01:04;3.13;;;2.83;;
7919;SDS011;18778;47.610;9.776;2023-10-31T15:03:30;3.20;;;2.93;;
7919;SDS011;18778;47.610;9.776;2023-10-31T15:05:56;4.43;;;3.00;;
7919;SDS011;18778;47.610;9.776;2023-10-31T15:08:22;3.47;;;2.67;;